createdAt,value
2019-03-20T00:01:43.483Z,7.40
2019-03-20T00:04:04.288Z,7.40
2019-03-20T00:06:33.287Z,7.50
2019-03-20T00:09:02.882Z,7.50
2019-03-20T00:11:31.967Z,7.50
2019-03-20T00:14:01.248Z,7.60
2019-03-20T00:16:30.187Z,7.60
2019-03-20T00:18:59.183Z,7.60
2019-03-20T00:21:28.335Z,7.60
2019-03-20T00:23:57.699Z,7.60
2019-03-20T00:26:26.806Z,7.60
2019-03-20T00:28:56.518Z,7.60
2019-03-20T00:31:25.514Z,7.70
2019-03-20T00:33:54.467Z,7.70
2019-03-20T00:36:23.411Z,7.70
2019-03-20T00:38:52.397Z,7.70
2019-03-20T00:41:21.414Z,7.80
2019-03-20T00:43:50.435Z,7.80
2019-03-20T00:46:19.408Z,7.90
2019-03-20T00:48:48.574Z,7.80
2019-03-20T00:51:17.655Z,7.80
2019-03-20T00:53:46.747Z,7.80
2019-03-20T00:56:15.822Z,7.90
2019-03-20T00:58:44.803Z,7.90
2019-03-20T01:01:13.871Z,7.90
2019-03-20T01:03:43.045Z,7.90
2019-03-20T01:06:11.926Z,7.90
2019-03-20T01:08:41.061Z,7.90
2019-03-20T01:11:10.306Z,7.90
2019-03-20T01:13:39.344Z,7.90
2019-03-20T01:16:08.422Z,7.90
2019-03-20T01:18:37.587Z,7.90
2019-03-20T01:21:06.774Z,7.90
2019-03-20T01:23:35.758Z,7.90
2019-03-20T01:26:04.971Z,7.90
2019-03-20T01:28:34.039Z,7.90
2019-03-20T01:31:03.047Z,8.00
2019-03-20T01:33:32.204Z,8.00
2019-03-20T01:36:01.225Z,8.00
2019-03-20T01:38:30.618Z,7.90
2019-03-20T01:40:59.787Z,7.90
2019-03-20T01:43:29.034Z,7.90
2019-03-20T01:45:58.055Z,7.90
2019-03-20T01:48:27.095Z,8.00
2019-03-20T01:51:10.082Z,8.00
2019-03-20T01:53:39.101Z,7.90
2019-03-20T01:56:08.031Z,7.90
2019-03-20T01:58:37.215Z,7.90
2019-03-20T02:01:06.366Z,7.90
2019-03-20T02:03:35.679Z,7.90
2019-03-20T02:06:05.173Z,7.90
2019-03-20T02:08:34.304Z,7.90
2019-03-20T02:11:03.464Z,7.90
2019-03-20T02:13:32.803Z,7.90
2019-03-20T02:16:02.062Z,7.90
2019-03-20T02:18:31.295Z,8.00
2019-03-20T02:21:01.036Z,8.00
2019-03-20T02:23:30.144Z,8.00
2019-03-20T02:25:59.182Z,8.00
2019-03-20T02:28:28.172Z,7.90
2019-03-20T02:30:57.240Z,7.90
2019-03-20T02:33:26.560Z,8.00
2019-03-20T02:35:55.664Z,8.00
2019-03-20T02:38:24.689Z,7.90
2019-03-20T02:40:54.036Z,7.90
2019-03-20T02:43:23.081Z,7.90
2019-03-20T02:45:52.231Z,7.90
2019-03-20T02:48:21.269Z,7.90
2019-03-20T02:50:50.474Z,7.90
2019-03-20T02:53:19.544Z,7.80
2019-03-20T02:55:48.569Z,7.80
2019-03-20T02:58:17.732Z,7.80
2019-03-20T03:07:44.448Z,7.70
2019-03-20T03:10:13.928Z,7.60
2019-03-20T03:12:42.930Z,7.50
2019-03-20T03:15:12.796Z,7.50
2019-03-20T03:17:42.063Z,7.50
2019-03-20T03:20:11.457Z,7.50
2019-03-20T03:22:40.659Z,7.50
2019-03-20T03:25:10.069Z,7.50
2019-03-20T03:27:39.177Z,7.50
2019-03-20T03:30:08.765Z,7.50
2019-03-20T03:32:38.018Z,7.50
2019-03-20T03:35:07.255Z,7.50
2019-03-20T03:37:36.320Z,7.40
2019-03-20T03:40:06.656Z,7.40
2019-03-20T03:42:35.679Z,7.40
2019-03-20T03:45:05.679Z,7.40
2019-03-20T03:47:34.744Z,7.30
2019-03-20T03:50:03.695Z,7.30
2019-03-20T03:52:32.768Z,7.30
2019-03-20T03:55:01.967Z,7.20
2019-03-20T03:57:31.088Z,7.20
2019-03-20T04:00:00.481Z,7.20
2019-03-20T04:02:31.978Z,7.30
2019-03-20T04:05:01.300Z,7.20
2019-03-20T04:07:30.500Z,7.20
2019-03-20T04:09:59.568Z,7.20
2019-03-20T04:12:28.910Z,7.20
2019-03-20T04:14:58.119Z,7.20
2019-03-20T04:17:28.252Z,7.20
2019-03-20T04:19:57.481Z,7.20
2019-03-20T04:22:26.680Z,7.10
2019-03-20T04:24:55.840Z,7.10
2019-03-20T04:27:25.083Z,7.10
2019-03-20T04:29:54.299Z,7.10
2019-03-20T04:32:23.700Z,7.10
2019-03-20T04:34:52.705Z,7.00
2019-03-20T04:37:21.681Z,7.00
2019-03-20T04:39:50.776Z,7.00
2019-03-20T04:42:19.715Z,6.90
2019-03-20T04:44:48.832Z,6.90
2019-03-20T04:47:17.891Z,6.90
2019-03-20T04:49:46.894Z,7.00
2019-03-20T04:52:15.827Z,6.90
2019-03-20T04:54:44.750Z,6.90
2019-03-20T04:57:13.808Z,6.90
2019-03-20T04:59:42.919Z,7.00
2019-03-20T05:02:11.907Z,7.00
2019-03-20T05:04:40.927Z,6.90
2019-03-20T05:07:10.048Z,6.90
2019-03-20T05:09:39.109Z,6.90
2019-03-20T05:12:08.166Z,6.90
2019-03-20T05:14:37.075Z,6.90
2019-03-20T05:17:06.081Z,6.80
2019-03-20T05:19:35.095Z,6.80
2019-03-20T05:22:04.255Z,6.70
2019-03-20T05:24:33.306Z,6.70
2019-03-20T05:27:02.354Z,6.80
2019-03-20T05:29:31.661Z,6.90
2019-03-20T05:32:01.156Z,6.80
2019-03-20T05:34:30.267Z,6.80
2019-03-20T05:37:09.869Z,6.80
2019-03-20T05:39:30.742Z,6.80
2019-03-20T05:41:59.769Z,6.80
2019-03-20T05:44:29.228Z,6.80
2019-03-20T05:46:58.287Z,6.80
2019-03-20T05:49:27.567Z,6.80
2019-03-20T05:51:56.732Z,6.90
2019-03-20T05:54:25.838Z,6.90
2019-03-20T05:56:55.134Z,6.90
2019-03-20T05:59:24.425Z,6.90
2019-03-20T06:01:53.574Z,6.90
2019-03-20T06:04:22.649Z,6.90
2019-03-20T06:06:51.752Z,6.90
2019-03-20T06:09:20.698Z,7.00
2019-03-20T06:11:49.695Z,6.90
2019-03-20T06:14:18.754Z,6.90
2019-03-20T06:16:47.767Z,6.90
2019-03-20T06:19:16.748Z,6.90
2019-03-20T06:21:45.816Z,6.90
2019-03-20T06:24:34.227Z,6.90
2019-03-20T06:27:03.369Z,6.90
2019-03-20T06:29:32.480Z,6.90
2019-03-20T06:32:02.196Z,6.90
2019-03-20T06:34:31.334Z,6.90
2019-03-20T06:37:00.863Z,7.00
2019-03-20T06:39:29.999Z,7.00
2019-03-20T06:41:59.472Z,7.10
2019-03-20T06:44:33.159Z,7.10
2019-03-20T06:47:02.089Z,7.10
2019-03-20T06:49:31.126Z,7.20
2019-03-20T06:52:00.282Z,7.20
2019-03-20T06:54:29.265Z,7.20
2019-03-20T06:56:58.788Z,7.30
2019-03-20T07:00:09.161Z,7.30
2019-03-20T07:02:38.911Z,7.30
2019-03-20T07:05:32.719Z,7.30
2019-03-20T07:08:01.531Z,7.30
2019-03-20T07:11:14.724Z,7.30
2019-03-20T07:13:44.219Z,7.30
2019-03-20T07:16:13.402Z,7.30
2019-03-20T07:18:42.570Z,7.40
2019-03-20T07:21:12.150Z,7.40
2019-03-20T07:23:41.211Z,7.40
2019-03-20T07:26:10.324Z,7.50
2019-03-20T07:28:39.427Z,7.40
2019-03-20T07:31:15.295Z,7.40
2019-03-20T07:33:40.326Z,7.50
2019-03-20T07:36:09.533Z,7.50
2019-03-20T07:38:38.566Z,7.50
2019-03-20T07:41:07.781Z,7.50
2019-03-20T07:43:36.799Z,7.60
2019-03-20T07:46:05.908Z,7.60
2019-03-20T07:48:35.170Z,7.60
2019-03-20T07:51:04.309Z,7.70
2019-03-20T07:53:33.374Z,7.70
2019-03-20T07:56:02.682Z,7.70
2019-03-20T07:58:31.714Z,7.80
2019-03-20T08:01:00.807Z,7.70
2019-03-20T08:03:30.004Z,7.80
2019-03-20T08:05:59.047Z,7.80
2019-03-20T08:08:28.084Z,7.80
2019-03-20T08:10:57.102Z,7.90
2019-03-20T08:13:26.300Z,7.90
2019-03-20T08:15:55.335Z,7.90
2019-03-20T08:18:24.448Z,7.90
2019-03-20T08:20:53.438Z,7.90
2019-03-20T08:23:22.513Z,7.90
2019-03-20T08:25:51.756Z,7.90
2019-03-20T08:28:20.915Z,8.00
2019-03-20T08:30:50.065Z,8.00
2019-03-20T08:33:20.204Z,8.00
2019-03-20T08:35:49.236Z,8.10
2019-03-20T08:38:19.005Z,8.20
2019-03-20T08:40:48.328Z,8.20
2019-03-20T08:43:17.358Z,8.30
2019-03-20T08:45:46.405Z,8.30
2019-03-20T08:48:15.631Z,8.30
2019-03-20T08:50:44.932Z,8.40
2019-03-20T08:53:14.159Z,8.50
2019-03-20T08:55:43.384Z,8.60
2019-03-20T08:58:12.538Z,8.60
2019-03-20T09:00:41.793Z,8.70
2019-03-20T09:03:10.919Z,8.70
2019-03-20T09:05:40.047Z,8.80
2019-03-20T09:08:09.192Z,8.80
2019-03-20T09:10:38.682Z,8.80
2019-03-20T09:13:07.710Z,8.80
2019-03-20T09:15:36.783Z,8.90
2019-03-20T09:18:06.040Z,8.90
2019-03-20T09:20:35.139Z,8.90
2019-03-20T09:23:04.230Z,9.00
2019-03-20T09:25:33.272Z,9.00
2019-03-20T09:28:02.491Z,9.00
2019-03-20T09:30:31.764Z,9.00
2019-03-20T09:33:00.933Z,9.00
2019-03-20T09:35:31.300Z,9.10
2019-03-20T09:38:00.478Z,9.10
2019-03-20T09:40:29.599Z,9.20
2019-03-20T09:42:58.643Z,9.20
2019-03-20T09:45:27.838Z,9.20
2019-03-20T09:47:56.895Z,9.20
2019-03-20T09:50:26.067Z,9.30
2019-03-20T09:52:55.163Z,9.30
2019-03-20T09:55:24.266Z,9.30
2019-03-20T09:57:53.346Z,9.30
2019-03-20T10:00:23.119Z,9.40
2019-03-20T10:02:52.398Z,9.50
2019-03-20T10:05:21.892Z,9.60
2019-03-20T10:07:51.102Z,9.60
2019-03-20T10:10:21.311Z,9.60
2019-03-20T10:12:50.512Z,9.70
2019-03-20T10:15:19.824Z,9.60
2019-03-20T10:17:48.968Z,9.70
2019-03-20T10:20:19.062Z,9.70
2019-03-20T10:22:48.295Z,9.80
2019-03-20T10:25:17.576Z,9.80
2019-03-20T10:27:46.699Z,9.90
2019-03-20T10:30:18.549Z,9.90
2019-03-20T10:32:47.771Z,9.90
2019-03-20T10:35:16.914Z,9.90
2019-03-20T10:37:46.242Z,9.90
2019-03-20T10:40:17.311Z,9.90
2019-03-20T10:42:46.702Z,10.00
2019-03-20T10:45:16.131Z,10.00
2019-03-20T10:47:45.832Z,10.00
2019-03-20T10:50:16.768Z,10.00
2019-03-20T10:52:45.925Z,10.00
2019-03-20T10:55:15.286Z,10.10
2019-03-20T10:57:44.510Z,10.10
2019-03-20T11:00:16.979Z,10.10
2019-03-20T11:02:46.320Z,10.20
2019-03-20T11:05:15.775Z,10.20
2019-03-20T11:07:44.975Z,10.20
2019-03-20T11:10:16.063Z,10.20
2019-03-20T11:12:45.305Z,10.20
2019-03-20T11:15:15.043Z,10.20
2019-03-20T11:17:44.190Z,10.30
2019-03-20T11:20:14.445Z,10.30
2019-03-20T11:22:43.606Z,10.40
2019-03-20T11:25:14.162Z,10.40
2019-03-20T11:27:43.302Z,10.30
2019-03-20T11:30:21.040Z,10.30
2019-03-20T11:32:50.166Z,10.40
2019-03-20T11:35:19.468Z,10.40
2019-03-20T11:37:48.552Z,10.40
2019-03-20T11:40:20.105Z,10.40
2019-03-20T11:42:49.248Z,10.40
2019-03-20T11:45:18.290Z,10.40
2019-03-20T11:47:47.487Z,10.30
2019-03-20T11:50:25.263Z,10.30
2019-03-20T11:52:54.330Z,10.40
2019-03-20T11:55:25.487Z,10.40
2019-03-20T11:57:54.663Z,10.40
2019-03-20T12:00:23.859Z,10.50
2019-03-20T12:02:52.978Z,10.50
2019-03-20T12:05:22.116Z,10.50
2019-03-20T12:07:51.203Z,10.50
2019-03-20T12:10:21.951Z,10.50
2019-03-20T12:12:51.135Z,10.50
2019-03-20T12:15:20.271Z,10.50
2019-03-20T12:17:49.288Z,10.50
2019-03-20T12:20:19.092Z,10.50
2019-03-20T12:22:49.001Z,10.50
2019-03-20T12:25:26.252Z,10.60
2019-03-20T12:27:55.430Z,10.60
2019-03-20T12:30:26.601Z,10.60
2019-03-20T12:32:55.999Z,10.60
2019-03-20T12:35:26.334Z,10.60
2019-03-20T12:37:56.598Z,10.70
2019-03-20T12:40:33.776Z,10.70
2019-03-20T12:43:03.602Z,10.70
2019-03-20T12:45:33.599Z,10.60
2019-03-20T12:48:02.867Z,10.60
2019-03-20T12:50:54.105Z,10.60
2019-03-20T12:53:31.827Z,10.60
2019-03-20T12:56:02.498Z,10.60
2019-03-20T12:58:58.508Z,10.70
2019-03-20T13:01:27.816Z,10.70
2019-03-20T13:03:56.970Z,10.70
2019-03-20T13:06:26.268Z,10.70
2019-03-20T13:08:55.484Z,10.70
2019-03-20T13:11:24.640Z,10.70
2019-03-20T13:13:54.327Z,10.70
2019-03-20T13:16:23.829Z,10.60
2019-03-20T13:18:54.163Z,10.60
2019-03-20T13:21:23.454Z,10.60
2019-03-20T13:23:52.640Z,10.60
2019-03-20T13:26:22.066Z,10.60
2019-03-20T13:28:51.327Z,10.70
2019-03-20T13:31:23.888Z,10.70
2019-03-20T13:33:52.816Z,10.70
2019-03-20T13:36:22.038Z,10.80
2019-03-20T13:38:51.182Z,10.80
2019-03-20T13:41:20.079Z,10.70
2019-03-20T13:43:49.134Z,10.70
2019-03-20T13:46:18.163Z,10.70
2019-03-20T13:48:47.199Z,10.70
2019-03-20T13:51:16.263Z,10.70
2019-03-20T13:53:45.422Z,10.80
2019-03-20T13:56:14.490Z,10.80
2019-03-20T13:58:43.861Z,10.80
2019-03-20T14:01:13.364Z,10.80
2019-03-20T14:03:45.705Z,10.80
2019-03-20T14:06:14.819Z,10.80
2019-03-20T14:08:43.976Z,10.80
2019-03-20T14:11:13.210Z,10.80
2019-03-20T14:13:42.491Z,10.80
2019-03-20T14:16:11.799Z,10.70
2019-03-20T14:18:40.959Z,10.80
2019-03-20T14:21:10.080Z,10.80
2019-03-20T14:23:39.157Z,10.80
2019-03-20T14:26:14.606Z,10.80
2019-03-20T14:28:43.687Z,10.80
2019-03-20T14:31:13.138Z,10.70
2019-03-20T14:33:42.224Z,10.70
2019-03-20T14:36:11.501Z,10.70
2019-03-20T14:38:40.588Z,10.80
2019-03-20T14:41:09.799Z,10.80
2019-03-20T14:43:38.880Z,10.80
2019-03-20T14:46:07.899Z,10.70
2019-03-20T14:48:36.898Z,10.70
2019-03-20T14:51:08.003Z,10.60
2019-03-20T14:53:37.114Z,10.60
2019-03-20T14:56:06.362Z,10.60
2019-03-20T14:58:35.561Z,10.60
2019-03-20T15:01:05.070Z,10.60
2019-03-20T15:03:34.263Z,10.60
2019-03-20T15:06:03.277Z,10.60
2019-03-20T15:08:34.320Z,10.60
2019-03-20T15:11:03.863Z,10.60
2019-03-20T15:13:33.263Z,10.60
2019-03-20T15:16:06.482Z,10.70
2019-03-20T15:18:36.747Z,10.70
2019-03-20T15:21:05.924Z,10.80
2019-03-20T15:23:34.963Z,10.70
2019-03-20T15:26:04.012Z,10.70
2019-03-20T15:28:33.301Z,10.70
2019-03-20T15:31:02.490Z,10.70
2019-03-20T15:33:31.894Z,10.70
2019-03-20T15:36:01.080Z,10.70
2019-03-20T15:38:30.319Z,10.60
2019-03-20T15:40:59.408Z,10.70
2019-03-20T15:43:28.648Z,10.70
2019-03-20T15:45:57.853Z,10.70
2019-03-20T15:48:26.985Z,10.70
2019-03-20T15:50:56.583Z,10.70
2019-03-20T15:53:27.618Z,10.70
2019-03-20T15:55:56.815Z,10.70
2019-03-20T15:58:25.882Z,10.70
2019-03-20T16:00:54.975Z,10.80
2019-03-20T16:03:24.726Z,10.90
2019-03-20T16:05:53.747Z,11.00
2019-03-20T16:08:23.105Z,11.00
2019-03-20T16:10:52.427Z,11.00
2019-03-20T16:13:21.830Z,10.90
2019-03-20T16:15:50.974Z,10.90
2019-03-20T16:18:20.116Z,10.80
2019-03-20T16:20:49.171Z,10.90
2019-03-20T16:23:18.326Z,10.80
2019-03-20T16:25:47.591Z,10.80
2019-03-20T16:28:16.640Z,10.90
2019-03-20T16:30:45.864Z,11.10
2019-03-20T16:33:15.004Z,11.30
2019-03-20T16:35:43.898Z,11.30
2019-03-20T16:38:13.026Z,11.30
2019-03-20T16:40:42.103Z,11.20
2019-03-20T16:43:11.279Z,11.20
2019-03-20T16:45:40.519Z,11.10
2019-03-20T16:48:09.643Z,11.10
2019-03-20T16:50:38.790Z,11.10
2019-03-20T16:53:08.346Z,11.10
2019-03-20T16:55:37.559Z,11.10
2019-03-20T16:58:06.839Z,11.10
2019-03-20T17:00:36.099Z,11.10
2019-03-20T17:03:05.183Z,11.10
2019-03-20T17:05:34.497Z,11.00
2019-03-20T17:08:03.895Z,11.00
2019-03-20T17:10:35.166Z,10.90
2019-03-20T17:13:05.051Z,10.90
2019-03-20T17:15:34.380Z,10.90
2019-03-20T17:18:03.888Z,10.90
2019-03-20T17:20:33.059Z,10.80
2019-03-20T17:23:02.303Z,10.80
2019-03-20T17:25:31.548Z,10.80
2019-03-20T17:28:00.753Z,10.90
2019-03-20T17:30:31.970Z,11.10
2019-03-20T17:33:01.219Z,11.10
2019-03-20T17:35:30.371Z,11.10
2019-03-20T17:37:59.515Z,11.10
2019-03-20T17:40:28.881Z,11.00
2019-03-20T17:42:58.118Z,11.00
2019-03-20T17:45:27.588Z,11.00
2019-03-20T17:48:02.692Z,11.00
2019-03-20T17:50:32.215Z,10.90
2019-03-20T17:53:02.549Z,10.90
2019-03-20T17:55:32.455Z,10.90
2019-03-20T17:58:01.743Z,10.90
2019-03-20T18:00:49.869Z,10.90
2019-03-20T18:03:19.642Z,10.80
2019-03-20T18:05:48.874Z,10.80
2019-03-20T18:08:17.998Z,10.80
2019-03-20T18:10:47.081Z,10.80
2019-03-20T18:13:18.402Z,10.80
2019-03-20T18:15:47.492Z,10.80
2019-03-20T18:18:16.603Z,10.80
2019-03-20T18:20:45.723Z,11.00
2019-03-20T18:23:14.916Z,11.00
2019-03-20T18:25:43.985Z,10.90
2019-03-20T18:28:13.034Z,10.90
2019-03-20T18:30:42.163Z,10.90
2019-03-20T18:33:11.316Z,10.90
2019-03-20T18:35:40.468Z,10.90
2019-03-20T18:38:09.855Z,10.90
2019-03-20T18:40:38.834Z,10.90
2019-03-20T18:43:07.822Z,10.90
2019-03-20T18:45:37.013Z,10.90
2019-03-20T18:48:06.346Z,10.90
2019-03-20T18:50:35.511Z,10.90
2019-03-20T18:53:04.693Z,10.80
2019-03-20T18:55:33.850Z,10.80
2019-03-20T18:58:03.322Z,10.80
2019-03-20T19:00:32.460Z,10.80
2019-03-20T19:03:01.950Z,10.80
2019-03-20T19:05:49.626Z,10.80
2019-03-20T19:08:18.884Z,10.80
2019-03-20T19:10:48.125Z,10.80
2019-03-20T19:13:17.268Z,10.80
2019-03-20T19:15:46.485Z,10.80
2019-03-20T19:18:15.645Z,10.80
2019-03-20T19:20:44.692Z,10.80
2019-03-20T19:23:14.119Z,10.80
2019-03-20T19:25:43.271Z,10.80
2019-03-20T19:28:12.365Z,10.80
2019-03-20T19:30:41.495Z,10.80
2019-03-20T19:33:10.614Z,10.80
2019-03-20T19:35:39.647Z,10.80
2019-03-20T19:38:08.650Z,10.80
2019-03-20T19:40:37.734Z,10.80
2019-03-20T19:43:07.882Z,10.80
2019-03-20T19:45:36.966Z,10.80
2019-03-20T19:48:13.757Z,10.80
2019-03-20T19:50:42.586Z,10.80
2019-03-20T19:53:11.673Z,10.80
2019-03-20T19:55:40.983Z,10.80
2019-03-20T19:58:10.231Z,10.70
2019-03-20T20:00:39.382Z,10.70
2019-03-20T20:03:08.665Z,10.70
2019-03-20T20:05:37.798Z,10.80
2019-03-20T20:08:06.984Z,10.80
2019-03-20T20:10:36.574Z,10.80
2019-03-20T20:13:05.783Z,10.80
2019-03-20T20:15:34.986Z,10.80
2019-03-20T20:18:04.138Z,10.80
2019-03-20T20:20:33.487Z,10.80
2019-03-20T20:23:04.451Z,10.80
2019-03-20T20:25:33.866Z,10.80
2019-03-20T20:28:03.039Z,10.80
2019-03-20T20:30:32.199Z,10.80
2019-03-20T20:33:01.267Z,10.80
2019-03-20T20:35:30.382Z,10.80
2019-03-20T20:37:59.758Z,10.80
2019-03-20T20:40:28.941Z,10.80
2019-03-20T20:42:58.128Z,10.80
2019-03-20T20:45:27.248Z,10.80
2019-03-20T20:47:56.374Z,10.80
2019-03-20T20:50:25.929Z,10.80
2019-03-20T20:52:55.422Z,10.90
2019-03-20T20:55:24.510Z,10.90
2019-03-20T20:57:53.671Z,11.00
2019-03-20T21:00:22.899Z,11.00
2019-03-20T21:02:52.163Z,11.00
2019-03-20T21:05:21.324Z,11.10
2019-03-20T21:07:50.424Z,11.00
2019-03-20T21:10:19.576Z,11.00
2019-03-20T21:12:56.349Z,11.00
2019-03-20T21:15:34.405Z,10.90
2019-03-20T21:18:49.696Z,10.90
2019-03-20T21:21:19.423Z,10.90
2019-03-20T21:24:25.616Z,10.90
2019-03-20T21:27:40.835Z,10.90
2019-03-20T21:30:31.758Z,10.80
2019-03-20T21:33:01.481Z,10.80
2019-03-20T21:36:25.481Z,10.80
2019-03-20T21:38:55.134Z,10.80
2019-03-20T21:42:05.470Z,10.80
2019-03-20T21:45:21.344Z,10.80
2019-03-20T21:47:51.099Z,10.80
2019-03-20T21:51:02.528Z,10.80
2019-03-20T21:54:15.701Z,10.80
2019-03-20T21:56:49.479Z,10.80
2019-03-20T21:59:54.218Z,10.80
2019-03-20T22:02:41.287Z,10.80
2019-03-20T22:05:23.287Z,10.80
2019-03-20T22:07:53.127Z,10.80
2019-03-20T22:11:02.687Z,10.80
2019-03-20T22:13:42.015Z,10.80
2019-03-20T22:17:10.533Z,10.80
2019-03-20T22:20:35.843Z,10.80
2019-03-20T22:23:43.411Z,10.80
2019-03-20T22:26:42.686Z,10.80
2019-03-20T22:29:28.723Z,10.80
2019-03-20T22:32:50.805Z,10.70
2019-03-20T22:35:47.914Z,10.70
2019-03-20T22:39:23.363Z,10.80
2019-03-20T22:42:22.250Z,10.70
2019-03-20T22:45:23.315Z,10.70
2019-03-20T22:48:28.587Z,10.80
2019-03-20T22:51:03.808Z,10.80
2019-03-20T22:54:12.599Z,10.80
2019-03-20T22:57:24.829Z,10.80
2019-03-20T22:59:54.442Z,10.80
2019-03-20T23:02:38.534Z,10.80
2019-03-20T23:05:09.146Z,10.80
2019-03-20T23:07:38.868Z,10.70
2019-03-20T23:10:11.395Z,10.70
2019-03-20T23:12:40.934Z,10.70
2019-03-20T23:15:13.642Z,10.70
2019-03-20T23:17:43.397Z,10.70
2019-03-20T23:20:15.582Z,10.80
2019-03-20T23:22:45.162Z,10.80
2019-03-20T23:25:14.846Z,10.80
2019-03-20T23:27:44.418Z,10.80
2019-03-20T23:30:17.206Z,10.70
2019-03-20T23:32:46.939Z,10.80
2019-03-20T23:35:16.486Z,10.80
2019-03-20T23:37:46.070Z,10.80
2019-03-20T23:40:15.994Z,10.80
2019-03-20T23:42:46.340Z,10.80
2019-03-20T23:45:22.886Z,10.80
2019-03-20T23:47:58.885Z,10.80
2019-03-20T23:50:28.495Z,10.80
2019-03-20T23:52:58.194Z,10.80
2019-03-20T23:55:27.978Z,10.70
2019-03-20T23:57:57.926Z,10.70
